首页
METAR-TAF:

METAR-TAF

机场 :

勒阿弗尔, 法国

纬度: 49-31N, 经度: 000-04E, 海拔: 100米

当前天气观测

该预报发布于33分钟前的18:00 UTC
风速6节,风向
温度 7°C
湿度 76%
气压 1017 hPa
能见度10公里或以上
1500米以下无云,无积雨云

METAR: LFOH 191800Z AUTO 17006KT CAVOK 07/03 Q1017 NOSIG

时间: 19:33 (18:33 UTC)

预报

该预报发布于7小时和33分钟前的11:00 UTC
预报有效从19日的 12点(UTC)到 20日的 12点(UTC)
风速7节,风向
能见度10公里或以上
1500米以下无云,无积雨云
成为
从 19日的 22点(UTC)到 19日的 24点(UTC)
风速10节,风向东南
阴天层高于500英尺
几率 30%
从 20日的 00点(UTC)到 20日的 06点(UTC)
能見度: 2000
阴天层高于300英尺
轻雾
成为
从 20日的 08点(UTC)到 20日的 11点(UTC)
多云层高于1200英尺

TAF: LFOH 191100Z 1912/2012 19007KT CAVOK BECMG 1922/1924 13010KT OVC005 PROB30 2000/2006 2000 BR OVC003 BECMG 2008/2011 BKN012

超过4000个机场的气象观测和天气预报(METAR&TAF报告)。

可查询的气象台以黄色和红色小点在地图上表示。

将鼠标移到小点上方,可查看气象台名称。

然后点击查看天气观测和预报。

如需切换地图:点击带黑十字的绿色按钮放大地图;点击带横线的绿色按钮缩小地图;或者点击绿色箭头查看邻近地区的地图。


METAR-TAF: